Ana Sayfa
METAR-TAF:

METAR-TAF

Havaalanları :

Yellowstone Airport

West Yellowstone, Montana, Amerika Birleşik Devletleri

Enlem: 44-39N, Boylam: 111-06W, yükseklik: 2031 m

Güncel hava durumu gözlemi

Rapor saat 20:35 UTC de 28 dakika önce yapıldı.
Rüzgar güneybatıdan 4 kt
Sıcaklık 11°C
Nem 87%
Basınç 1019 hPa
Görüş mesafesi: 9.7 km
2900 ft yükseklikte az bulutlu
4900 ft yükseklikte parçalı bulutlu
5500 ft yükseklikte parçalı çok bulutlu
Pus

METAR: KWYS 162035Z AUTO 23004KT 6SM BR FEW029 SCT049 BKN055 11/09 A3009 RMK AO2

Saat: 15:03 (21:03 UTC)


TAF: eksik

4.000'den fazla havaalanı için hava durumu gözlemleri ve tahminleri (METAR ve TAF raporları).

Kullanılabilir istasyonlar harita üzerinde sarı ve kırmızı noktalarla gösterilir.

İstasyonun adını görmek için fareyi noktanın üzerinde gezdirin.

Sonrasında hava gözlem ve tahminlerini görmek için tıklayın.

Haritayı değiştirmek için: yaklaştırmak için siyah artı işaretli yeşil düğmeye ve uzaklaştırmak için de eksi işaretli düğmeye hızla tıklayın; bitişik haritalar için yeşil okları kullanın.


METAR-TAF: